Погода Могокна 2 недели

Мандалай, Мьянма

04 - 17 марта
  • 04марта
    Сегодня
    +12°
    +29°
    Ясно и безоблачно
    ВремяПогодаТемператураВлажностьДавлениеВетер, м/сВероятность осадков
    00:30Ясно и безоблачно+20°C48 %671 мм1.3 м/с2 %
    03:30Ясно и безоблачно+18°C56 %670 мм1.6 м/с2 %
    06:30Ясно и безоблачно+13°C56 %669 мм1.3 м/с2 %
    09:30Ясно и безоблачно+20°C39 %672 мм1.4 м/с2 %
    12:30Ясно и безоблачно+27°C28 %673 мм2.1 м/с2 %
    15:30Ясно и безоблачно+28°C29 %672 мм3.1 м/с2 %
    18:30Ясно и безоблачно+24°C49 %671 мм1.4 м/с2 %
    21:30Ясно и безоблачно+20°C50 %672 мм1.4 м/с2 %
  • 05марта
    Вторник
    +13°
    +29°
    Ясно и безоблачно
    ВремяПогодаТемператураВлажностьДавлениеВетер, м/сВероятность осадков
    00:30Ясно и безоблачно+20°C58 %671 мм1.2 м/с2 %
    03:30Ясно и безоблачно+19°C57 %670 мм1.2 м/с2 %
    06:30Ясно и безоблачно+13°C49 %669 мм1.4 м/с2 %
    09:30Ясно и безоблачно+20°C39 %673 мм1.5 м/с2 %
    12:30Ясно и безоблачно+27°C26 %673 мм3.0 м/с2 %
    15:30Ясно и безоблачно+28°C29 %672 мм3.5 м/с2 %
    18:30Ясно и безоблачно+24°C46 %671 мм1.2 м/с2 %
    21:30Ясно и безоблачно+22°C45 %672 мм1.5 м/с2 %
  • 06марта
    Среда
    +11°
    +28°
    Ясно и безоблачно
    ВремяПогодаТемператураВлажностьДавлениеВетер, м/сВероятность осадков
    00:30Ясно и безоблачно+19°C59 %671 мм2.0 м/с2 %
    03:30Ясно и безоблачно+19°C63 %670 мм1.9 м/с2 %
    06:30Ясно и безоблачно+13°C52 %669 мм1.9 м/с2 %
    09:30Ясно и безоблачно+20°C25 %672 мм1.7 м/с2 %
    12:30Ясно и безоблачно+26°C16 %672 мм1.5 м/с2 %
    15:30Ясно и безоблачно+28°C15 %671 мм2.0 м/с2 %
    18:30Ясно и безоблачно+24°C33 %670 мм1.2 м/с2 %
    21:30Ясно и безоблачно+19°C28 %670 мм1.6 м/с2 %
  • 07марта
    Четверг
    +10°
    +29°
    Ясно и безоблачно
    ВремяПогодаТемператураВлажностьДавлениеВетер, м/сВероятность осадков
    00:30Ясно и безоблачно+20°C26 %670 мм1.8 м/с2 %
    03:30Ясно и безоблачно+19°C30 %669 мм1.5 м/с2 %
    06:30Ясно и безоблачно+12°C33 %668 мм1.4 м/с2 %
    09:30Ясно и безоблачно+19°C22 %671 мм0.5 м/с2 %
    12:30Ясно и безоблачно+27°C16 %672 мм2.1 м/с2 %
    15:30Ясно и безоблачно+28°C12 %671 мм2.4 м/с2 %
    18:30Ясно и безоблачно+24°C27 %670 мм1.0 м/с2 %
    21:30Ясно и безоблачно+21°C24 %671 мм1.2 м/с2 %
  • 08марта
    Пятница
    +12°
    +28°
    Ясно и безоблачно
    ВремяПогодаТемператураВлажностьДавлениеВетер, м/сВероятность осадков
    00:30Ясно и безоблачно+20°C26 %670 мм1.4 м/с2 %
    03:30Ясно и безоблачно+20°C27 %670 мм1.6 м/с2 %
    06:30Ясно и безоблачно+12°C27 %669 мм2.0 м/с2 %
    09:30Ясно и безоблачно+20°C13 %673 мм1.9 м/с2 %
    12:30Ясно и безоблачно+26°C12 %673 мм2.3 м/с2 %
    15:30Ясно и безоблачно+28°C13 %671 мм2.7 м/с2 %
    18:30Ясно и безоблачно+23°C23 %671 мм1.8 м/с2 %
    21:30Ясно и безоблачно+22°C21 %672 мм2.1 м/с2 %
Мы используем cookies
Соглашаюсь